New London Township, Pennsylvania
Current Conditions -  °F | °C
As of 8:35 PM on Wednesday 22 Oct 2014 (Local Time) from KMQS Reporting Station
Light Rain Light Rain  
Wind Chill: 50°   Ceiling: 4000
Heat Index: 50°   Visibility: 8mi
Dew Point: 48°   Wind: 13mph
Humidity: 94%   Direction: 330°NNW
Pressure: 29.89"   Gusts: NA
Location:  39.7848°N, 75.891°W
Report Text: KMQS 230035Z AUTO 33011KT 8SM -RA FEW013 FEW018 OVC040 10/09 A2989 RMK AO2
Loading
Personal Weather Stations






























Interactive Weather Map
Tropical Storm Tracking
New forecast layout! Learn more

10-Day Weather Forecast

Advertisements
Track Severe Weather on mobile